Time;durP1;ratioP1;P1;durP2;ratioP2;P2;SDS_P1;SDS_P2;PMS_P1;PMS_P2;Temp;Humidity;BMP_temperature;BMP_pressure;BME280_temperature;BME280_humidity;BME280_pressure;Samples;Min_cycle;Max_cycle;Signal;HPM_P1;HPM_P2
2021/10/06 00:00:24;;;;;;;13.27;8.25;;;;;;;;;;5031671;28;20033;-70
2021/10/06 00:02:50;;;;;;;12.07;7.72;;;;;;;;;;5033542;28;20075;-70
2021/10/06 00:05:16;;;;;;;11.07;7.63;;;;;;;;;;5035357;28;20595;-70
2021/10/06 00:07:42;;;;;;;11.10;7.40;;;;;;;;;;5031634;28;20041;-70
2021/10/06 00:10:08;;;;;;;14.93;7.53;;;;;;;;;;5020513;28;20037;-70
2021/10/06 00:12:34;;;;;;;14.10;7.25;;;;;;;;;;5032929;28;20033;-70
2021/10/06 00:14:59;;;;;;;13.27;7.30;;;;;;;;;;5031264;28;20030;-70
2021/10/06 00:17:26;;;;;;;11.00;7.15;;;;;;;;;;5030684;28;20029;-69
2021/10/06 00:19:52;;;;;;;13.77;6.50;;;;;;;;;;5031474;28;20084;-70
2021/10/06 00:22:18;;;;;;;15.18;6.90;;;;;;;;;;5022266;28;20025;-70
2021/10/06 00:24:44;;;;;;;11.30;7.07;;;;;;;;;;5031698;28;20029;-70
2021/10/06 00:27:10;;;;;;;9.93;6.72;;;;;;;;;;5029817;28;20040;-70
2021/10/06 00:29:36;;;;;;;11.82;7.50;;;;;;;;;;5022387;28;20176;-69
2021/10/06 00:32:02;;;;;;;12.65;7.72;;;;;;;;;;5031464;28;20108;-70
2021/10/06 00:34:28;;;;;;;10.43;6.80;;;;;;;;;;5032940;28;20611;-70
2021/10/06 00:36:54;;;;;;;10.68;7.28;;;;;;;;;;5029401;28;20044;-70
2021/10/06 00:39:20;;;;;;;10.13;6.72;;;;;;;;;;5032038;28;20025;-70
2021/10/06 00:41:46;;;;;;;12.70;7.07;;;;;;;;;;5031816;28;20033;-70
2021/10/06 00:44:12;;;;;;;12.45;6.82;;;;;;;;;;5029605;28;20136;-70
2021/10/06 00:46:38;;;;;;;11.95;7.28;;;;;;;;;;5031764;28;20065;-70
2021/10/06 00:49:03;;;;;;;11.98;6.55;;;;;;;;;;5030663;28;20042;-68
2021/10/06 00:51:29;;;;;;;11.80;6.05;;;;;;;;;;5029432;28;20049;-67
2021/10/06 00:53:55;;;;;;;12.23;7.35;;;;;;;;;;5031851;28;20029;-67
2021/10/06 00:56:21;;;;;;;9.75;6.53;;;;;;;;;;5010281;28;20680;-68
2021/10/06 00:58:47;;;;;;;10.25;6.40;;;;;;;;;;5031239;28;20040;-68
2021/10/06 01:01:13;;;;;;;10.93;6.55;;;;;;;;;;5029822;28;20037;-67
2021/10/06 01:03:39;;;;;;;11.05;6.38;;;;;;;;;;5030915;28;20037;-67
2021/10/06 01:06:05;;;;;;;12.27;6.40;;;;;;;;;;5034290;28;20448;-67
2021/10/06 01:08:31;;;;;;;8.25;5.93;;;;;;;;;;5029361;28;20064;-67
2021/10/06 01:10:57;;;;;;;12.85;7.18;;;;;;;;;;5028764;28;20505;-68
2021/10/06 01:13:23;;;;;;;14.15;6.80;;;;;;;;;;5031080;28;20038;-68
2021/10/06 01:15:49;;;;;;;10.55;6.25;;;;;;;;;;5029448;28;20029;-67
2021/10/06 01:18:16;;;;;;;12.48;6.60;;;;;;;;;;5031096;28;20059;-67
2021/10/06 01:20:42;;;;;;;10.02;6.22;;;;;;;;;;5009299;28;20048;-67
2021/10/06 01:23:08;;;;;;;11.23;6.13;;;;;;;;;;5031444;28;20084;-67
2021/10/06 01:25:34;;;;;;;9.32;6.32;;;;;;;;;;5029094;28;20037;-67
2021/10/06 01:28:00;;;;;;;9.57;6.68;;;;;;;;;;5030534;28;20823;-67
2021/10/06 01:30:26;;;;;;;7.82;6.05;;;;;;;;;;5031372;28;20036;-67
2021/10/06 01:32:52;;;;;;;13.73;6.90;;;;;;;;;;5019260;28;20041;-68
2021/10/06 01:35:18;;;;;;;11.05;6.13;;;;;;;;;;5030702;28;20089;-67
2021/10/06 01:37:44;;;;;;;9.35;6.05;;;;;;;;;;5030279;28;20388;-68
2021/10/06 01:40:11;;;;;;;8.15;6.30;;;;;;;;;;5029066;28;20064;-67
2021/10/06 01:42:37;;;;;;;9.75;6.25;;;;;;;;;;5031557;28;20686;-67
2021/10/06 01:45:03;;;;;;;12.32;5.63;;;;;;;;;;5030160;28;20555;-67
2021/10/06 01:47:29;;;;;;;10.23;6.25;;;;;;;;;;5027528;28;20496;-68
2021/10/06 01:49:55;;;;;;;7.82;6.32;;;;;;;;;;5031377;28;20106;-67
2021/10/06 01:52:21;;;;;;;9.98;5.97;;;;;;;;;;5029016;28;20044;-67
2021/10/06 01:54:47;;;;;;;12.63;6.32;;;;;;;;;;5028972;28;20064;-67
2021/10/06 01:57:13;;;;;;;10.38;6.75;;;;;;;;;;5030583;28;20055;-68
2021/10/06 01:59:39;;;;;;;11.25;6.43;;;;;;;;;;5010895;28;20049;-67
2021/10/06 02:02:05;;;;;;;10.95;6.22;;;;;;;;;;5010074;28;20033;-68
2021/10/06 02:04:31;;;;;;;9.20;6.90;;;;;;;;;;5031982;28;20029;-67
2021/10/06 02:06:57;;;;;;;12.77;6.00;;;;;;;;;;5028100;28;20041;-67
2021/10/06 02:09:23;;;;;;;10.27;6.97;;;;;;;;;;5020529;28;20067;-67
2021/10/06 02:11:49;;;;;;;9.43;5.93;;;;;;;;;;5028643;28;20103;-67
2021/10/06 02:14:14;;;;;;;11.25;6.55;;;;;;;;;;5030875;28;20075;-67
2021/10/06 02:16:40;;;;;;;10.23;6.68;;;;;;;;;;5028560;28;20045;-67
2021/10/06 02:19:07;;;;;;;9.07;6.00;;;;;;;;;;5028334;28;20120;-67
2021/10/06 02:21:33;;;;;;;11.57;6.53;;;;;;;;;;5030355;28;20037;-67
2021/10/06 02:23:59;;;;;;;11.48;7.72;;;;;;;;;;5029139;28;20030;-67
2021/10/06 02:26:25;;;;;;;11.75;8.05;;;;;;;;;;5031651;28;20040;-67
2021/10/06 02:28:51;;;;;;;14.07;6.80;;;;;;;;;;5026980;28;20037;-68
2021/10/06 02:31:17;;;;;;;11.05;7.15;;;;;;;;;;5030372;28;20526;-67
2021/10/06 02:33:43;;;;;;;12.27;7.35;;;;;;;;;;5009183;28;20033;-67
2021/10/06 02:36:09;;;;;;;18.23;8.02;;;;;;;;;;5029261;28;20044;-68
2021/10/06 02:38:35;;;;;;;15.48;8.05;;;;;;;;;;5027698;28;20036;-68
2021/10/06 02:41:01;;;;;;;12.80;8.23;;;;;;;;;;5029127;28;20040;-70
2021/10/06 02:43:26;;;;;;;10.52;7.60;;;;;;;;;;5029533;28;20493;-70
2021/10/06 02:45:52;;;;;;;17.25;8.82;;;;;;;;;;5027934;28;20036;-69
2021/10/06 02:48:18;;;;;;;13.52;8.27;;;12.60;99.90;;;;;;5031469;28;20722;-70
2021/10/06 02:50:44;;;;;;;13.80;8.30;;;;;;;;;;5029326;28;20602;-69
2021/10/06 02:53:10;;;;;;;13.13;8.30;;;;;;;;;;5028235;28;20529;-70
2021/10/06 02:55:36;;;;;;;14.85;8.98;;;;;;;;;;5030813;28;20543;-71
2021/10/06 02:58:02;;;;;;;13.02;8.55;;;;;;;;;;5030897;28;20820;-70
2021/10/06 03:00:28;;;;;;;12.80;8.45;;;;;;;;;;5031613;28;20110;-67
2021/10/06 03:02:54;;;;;;;15.15;8.90;;;;;;;;;;5012853;28;20179;-67
2021/10/06 03:05:20;;;;;;;16.95;9.40;;;;;;;;;;5034030;28;20044;-68
2021/10/06 03:07:45;;;;;;;13.40;9.20;;;;;;;;;;5031971;28;20059;-67
2021/10/06 03:10:11;;;;;;;13.32;8.30;;;;;;;;;;5021445;28;20029;-67
2021/10/06 03:12:37;;;;;;;16.40;9.35;;;;;;;;;;5033327;28;20033;-67
2021/10/06 03:15:03;;;;;;;11.95;8.07;;;;;;;;;;5031936;28;20033;-67
2021/10/06 03:17:32;;;;;;;16.85;8.43;;;;;;;;;;5031497;28;20037;-67
2021/10/06 03:19:58;;;;;;;14.25;8.88;;;;;;;;;;5019789;28;20918;-67
2021/10/06 03:22:24;;;;;;;14.23;7.95;;;;;;;;;;5031455;28;20025;-67
2021/10/06 03:24:50;;;;;;;18.02;8.85;;;;;;;;;;5031399;28;20073;-67
2021/10/06 03:27:16;;;;;;;17.08;8.68;;;;;;;;;;5032951;28;20040;-67
2021/10/06 03:29:42;;;;;;;14.48;8.50;;;;;;;;;;5033314;28;20032;-67
2021/10/06 03:32:08;;;;;;;16.60;8.63;;;;;;;;;;5034108;28;20069;-67
2021/10/06 03:34:34;;;;;;;15.18;8.63;;;;;;;;;;5034046;28;20110;-67
2021/10/06 03:37:00;;;;;;;16.88;8.40;;;;;;;;;;5031338;28;20059;-67
2021/10/06 03:39:26;;;;;;;14.02;8.50;;;;;;;;;;5032698;28;20026;-67
2021/10/06 03:41:52;;;;;;;14.10;8.55;;;;;;;;;;5031428;28;20847;-67
2021/10/06 03:44:18;;;;;;;12.93;7.28;;;;;;;;;;5033744;28;20503;-67
2021/10/06 03:46:44;;;;;;;14.65;7.63;;;;;;;;;;5032526;28;20110;-70
2021/10/06 03:49:10;;;;;;;11.65;6.93;;;;;;;;;;5020922;28;20041;-70
2021/10/06 03:51:36;;;;;;;11.95;6.65;;;;;;;;;;5033231;28;20033;-70
2021/10/06 03:54:02;;;;;;;10.13;6.97;;;;;;;;;;5031844;28;20120;-70
2021/10/06 03:56:28;;;;;;;10.93;6.93;;;;;;;;;;5031082;28;20029;-70
2021/10/06 03:58:53;;;;;;;12.77;7.13;;;;;;;;;;5033084;28;20029;-70
2021/10/06 04:01:19;;;;;;;10.65;6.53;;;;;;;;;;5031375;28;20044;-70
2021/10/06 04:03:45;;;;;;;17.00;6.45;;;;;;;;;;5031746;28;20132;-70
2021/10/06 04:06:11;;;;;;;11.65;6.47;;;;;;;;;;5032711;28;20150;-70
2021/10/06 04:08:37;;;;;;;8.38;5.75;;;;;;;;;;5029827;28;20521;-70
2021/10/06 04:11:03;;;;;;;13.02;6.53;;;;;;;;;;5031175;28;20067;-70
2021/10/06 04:13:29;;;;;;;9.95;6.32;;;;;;;;;;5032740;28;20036;-70
2021/10/06 04:15:55;;;;;;;8.77;5.38;;;;;;;;;;5034219;28;20913;-70
2021/10/06 04:18:21;;;;;;;10.65;5.65;;;;;;;;;;5036179;28;20402;-68
2021/10/06 04:20:47;;;;;;;8.45;5.55;;;;;;;;;;5037609;28;20520;-68
2021/10/06 04:23:13;;;;;;;6.50;4.38;;;;;;;;;;5035084;28;20041;-67
2021/10/06 04:25:39;;;;;;;10.98;5.00;;;;;;;;;;5033496;28;20041;-68
2021/10/06 04:28:04;;;;;;;13.23;5.03;;;12.50;99.90;;;;;;5032894;28;20038;-67
2021/10/06 04:30:30;;;;;;;8.77;4.38;;;;;;;;;;5035123;28;20033;-67
2021/10/06 04:32:56;;;;;;;6.60;4.78;;;;;;;;;;5034802;28;20072;-68
2021/10/06 04:35:22;;;;;;;6.50;4.50;;;;;;;;;;5033196;28;20033;-68
2021/10/06 04:37:48;;;;;;;8.60;4.95;;;;;;;;;;5029653;28;20037;-67
2021/10/06 04:40:14;;;;;;;9.90;4.88;;;;;;;;;;5035343;28;20893;-67
2021/10/06 04:42:42;;;;;;;6.15;4.60;;;;;;;;;;5036223;28;21127;-67
2021/10/06 04:45:08;;;;;;;7.03;5.15;;;;;;;;;;5018646;28;20029;-68
2021/10/06 04:47:34;;;;;;;9.65;5.40;;;;;;;;;;5033204;28;20033;-70
2021/10/06 04:50:00;;;;;;;7.47;5.10;;;;;;;;;;5035670;28;20029;-70
2021/10/06 04:52:26;;;;;;;12.68;5.25;;;;;;;;;;5032855;28;20067;-70
2021/10/06 04:54:53;;;;;;;7.70;4.78;;;;;;;;;;5032212;28;20028;-67
2021/10/06 04:57:19;;;;;;;14.23;5.70;;;;;;;;;;5033426;28;20112;-69
2021/10/06 04:59:45;;;;;;;8.48;5.88;;;;;;;;;;5036558;28;20476;-69
2021/10/06 05:02:11;;;;;;;10.52;6.00;;;;;;;;;;5036949;28;20044;-69
2021/10/06 05:04:37;;;;;;;9.70;5.85;;;;;;;;;;5037237;28;20067;-70
2021/10/06 05:07:03;;;;;;;9.50;5.82;;;;;;;;;;5035317;28;20037;-70
2021/10/06 05:09:28;;;;;;;8.95;6.00;;;12.00;99.90;;;;;;5030474;28;20091;-69
2021/10/06 05:11:54;;;;;;;11.95;5.65;;;;;;;;;;5036105;28;20114;-70
2021/10/06 05:14:20;;;;;;;10.90;6.30;;;;;;;;;;5022511;28;20033;-70
2021/10/06 05:16:46;;;;;;;10.15;6.65;;;;;;;;;;5034249;28;20032;-67
2021/10/06 05:19:12;;;;;;;10.02;6.60;;;;;;;;;;5021843;28;20077;-67
2021/10/06 05:21:38;;;;;;;13.73;6.45;;;;;;;;;;5033666;28;20041;-68
2021/10/06 05:24:04;;;;;;;11.15;6.53;;;;;;;;;;5033771;28;20037;-67
2021/10/06 05:26:30;;;;;;;17.15;7.43;;;;;;;;;;5032635;28;20048;-68
2021/10/06 05:28:56;;;;;;;14.65;7.13;;;;;;;;;;5015360;28;20041;-68
2021/10/06 05:31:22;;;;;;;15.80;8.07;;;;;;;;;;5031398;28;20045;-68
2021/10/06 05:33:48;;;;;;;19.10;7.70;;;;;;;;;;5029504;28;20029;-69
2021/10/06 05:36:14;;;;;;;19.50;8.55;;;;;;;;;;5030795;28;20520;-70
2021/10/06 05:38:40;;;;;;;13.77;8.40;;;;;;;;;;5036131;28;20028;-70
2021/10/06 05:41:06;;;;;;;17.17;8.75;;;;;;;;;;5032892;28;20033;-70
2021/10/06 05:43:32;;;;;;;17.02;9.05;;;;;;;;;;5035460;28;20029;-69
2021/10/06 05:45:58;;;;;;;16.55;8.70;;;;;;;;;;5035034;28;20676;-67
2021/10/06 05:48:23;;;;;;;17.65;8.73;;;11.30;99.90;;;;;;5037378;28;20029;-67
2021/10/06 05:50:49;;;;;;;16.90;8.00;;;;;;;;;;5034813;28;20040;-68
2021/10/06 05:53:15;;;;;;;12.27;7.70;;;;;;;;;;5035427;28;20408;-67
2021/10/06 05:55:40;;;;;;;13.77;7.22;;;11.70;99.90;;;;;;5031186;28;20786;-67
2021/10/06 05:58:06;;;;;;;13.48;7.20;;;;;;;;;;5035805;28;20396;-67
2021/10/06 06:00:32;;;;;;;13.43;6.70;;;;;;;;;;5031868;28;20037;-67
2021/10/06 06:02:58;;;;;;;11.55;6.10;;;;;;;;;;5031341;28;20036;-67
2021/10/06 06:05:24;;;;;;;13.02;6.70;;;;;;;;;;5029967;28;20048;-66
2021/10/06 06:07:50;;;;;;;12.00;6.00;;;;;;;;;;5026192;28;20037;-65
2021/10/06 06:10:16;;;;;;;11.02;5.43;;;;;;;;;;5023885;28;20128;-67
2021/10/06 06:12:43;;;;;;;10.07;5.18;;;;;;;;;;5038003;28;20128;-65
2021/10/06 06:15:08;;;;;;;9.73;4.78;;;;;;;;;;5033345;28;20041;-66
2021/10/06 06:17:37;;;;;;;10.20;5.00;;;;;;;;;;5033505;28;20036;-66
2021/10/06 06:20:03;;;;;;;11.68;4.85;;;;;;;;;;5035772;28;20044;-66
2021/10/06 06:22:29;;;;;;;8.05;4.13;;;;;;;;;;5034905;28;20036;-66
2021/10/06 06:24:55;;;;;;;15.65;8.55;;;;;;;;;;5034079;28;20138;-66
2021/10/06 06:27:21;;;;;;;9.70;4.05;;;;;;;;;;5034690;28;20074;-65
2021/10/06 06:29:47;;;;;;;8.60;3.33;;;;;;;;;;5031180;28;20041;-67
2021/10/06 06:32:13;;;;;;;8.75;3.38;;;;;;;;;;5031254;28;20050;-68
2021/10/06 06:34:39;;;;;;;8.07;3.13;;;;;;;;;;5018699;28;20036;-66
2021/10/06 06:37:04;;;;;;;11.48;5.05;;;;;;;;;;5031473;28;20037;-65
2021/10/06 06:39:30;;;;;;;6.63;2.88;;;;;;;;;;5035646;28;20516;-66
2021/10/06 06:41:56;;;;;;;7.28;2.70;;;;;;;;;;5029623;28;20504;-66
2021/10/06 06:44:22;;;;;;;9.25;2.70;;;;;;;;;;5038631;28;20036;-66
2021/10/06 06:46:48;;;;;;;8.23;2.53;;;;;;;;;;5032144;28;20040;-69
2021/10/06 06:49:14;;;;;;;8.20;2.55;;;;;;;;;;5018240;28;20036;-69
2021/10/06 06:51:40;;;;;;;6.63;2.40;;;12.20;99.90;;;;;;5029444;28;20044;-69
2021/10/06 06:54:06;;;;;;;11.25;2.60;;;;;;;;;;5028072;28;20048;-66
2021/10/06 06:56:38;;;;;;;5.35;2.38;;;;;;;;;;5033343;28;20801;-69
2021/10/06 06:59:04;;;;;;;16.73;5.28;;;;;;;;;;5028174;28;20033;-68
2021/10/06 07:01:30;;;;;;;7.43;3.63;;;;;;;;;;5030638;28;20874;-69
2021/10/06 07:03:56;;;;;;;9.23;1.95;;;;;;;;;;5029505;28;20116;-69
2021/10/06 07:06:22;;;;;;;4.30;1.95;;;;;;;;;;5032509;28;20044;-69
2021/10/06 07:08:48;;;;;;;6.45;1.80;;;;;;;;;;5031377;28;20124;-69
2021/10/06 07:11:14;;;;;;;5.28;1.60;;;;;;;;;;5028955;28;20761;-69
2021/10/06 07:13:40;;;;;;;8.05;3.03;;;13.10;99.90;;;;;;5035732;28;20102;-69
2021/10/06 07:16:06;;;;;;;4.90;1.58;;;;;;;;;;5033000;28;20068;-68
2021/10/06 07:18:32;;;;;;;5.28;2.38;;;;;;;;;;5031956;28;20037;-67
2021/10/06 07:20:58;;;;;;;6.57;1.75;;;;;;;;;;5037942;28;20047;-67
2021/10/06 07:23:23;;;;;;;5.60;1.48;;;;;;;;;;5028087;28;20071;-67
2021/10/06 07:25:50;;;;;;;5.45;1.20;;;;;;;;;;5033306;28;20808;-67
2021/10/06 07:28:15;;;;;;;6.03;1.33;;;;;;;;;;5026421;28;20029;-67
2021/10/06 07:30:41;;;;;;;5.97;1.30;;;;;;;;;;5031203;28;20033;-67
2021/10/06 07:33:07;;;;;;;3.03;1.00;;;;;;;;;;5012674;28;20043;-67
2021/10/06 07:35:33;;;;;;;2.15;0.88;;;;;;;;;;5030695;28;20863;-67
2021/10/06 07:37:59;;;;;;;4.25;1.30;;;;;;;;;;5008028;28;20838;-66
2021/10/06 07:40:25;;;;;;;3.60;0.77;;;;;;;;;;5030815;28;20493;-67
2021/10/06 07:42:51;;;;;;;2.50;0.80;;;;;;;;;;5008078;28;20022;-67
2021/10/06 07:45:17;;;;;;;1.60;0.70;;;;;;;;;;5031962;28;20404;-66
2021/10/06 07:47:43;;;;;;;2.38;1.10;;;;;;;;;;5037284;28;20542;-67
2021/10/06 07:50:09;;;;;;;3.35;0.90;;;;;;;;;;5033595;28;20409;-67
2021/10/06 07:52:35;;;;;;;1.90;0.90;;;14.80;99.90;;;;;;5031689;28;20392;-68
2021/10/06 07:55:01;;;;;;;1.75;0.85;;;;;;;;;;5032666;28;20769;-67
2021/10/06 07:57:26;;;;;;;3.55;0.70;;;;;;;;;;5031374;28;20470;-67
2021/10/06 07:59:54;;;;;;;4.75;0.70;;;;;;;;;;5033761;28;20122;-66
2021/10/06 08:02:20;;;;;;;6.05;1.30;;;13.60;99.90;;;;;;5030529;28;20148;-66
2021/10/06 08:04:46;;;;;;;4.70;1.33;;;;;;;;;;5036934;28;20245;-67
2021/10/06 08:07:13;;;;;;;3.90;1.10;;;;;;;;;;5032766;28;20029;-67
2021/10/06 08:09:39;;;;;;;7.03;2.03;;;;;;;;;;5036070;28;20040;-67
2021/10/06 08:12:06;;;;;;;3.85;1.20;;;;;;;;;;5016407;28;20033;-67
2021/10/06 08:14:32;;;;;;;4.75;0.93;;;;;;;;;;5036689;28;20037;-67
2021/10/06 08:16:58;;;;;;;2.60;0.80;;;;;;;;;;5040145;28;20051;-67
2021/10/06 08:19:24;;;;;;;1.50;0.85;;;;;;;;;;5031440;28;20675;-67
2021/10/06 08:21:50;;;;;;;5.75;1.10;;;;;;;;;;5033523;28;20029;-67
2021/10/06 08:24:16;;;;;;;7.38;1.13;;;;;;;;;;5034195;28;20029;-67
2021/10/06 08:26:42;;;;;;;3.28;1.02;;;;;;;;;;5036428;28;20564;-67
2021/10/06 08:29:08;;;;;;;4.22;1.10;;;;;;;;;;5033707;28;20045;-67
2021/10/06 08:31:34;;;;;;;3.60;1.00;;;;;;;;;;5032237;28;20150;-67
2021/10/06 08:34:00;;;;;;;3.30;1.02;;;;;;;;;;5039762;28;20065;-69
2021/10/06 08:36:26;;;;;;;5.28;1.00;;;;;;;;;;5037675;28;20140;-67
2021/10/06 08:38:52;;;;;;;1.67;0.70;;;16.10;99.90;;;;;;5032953;28;20136;-67
2021/10/06 08:41:17;;;;;;;1.92;1.17;;;;;;;;;;5030981;28;20392;-67
2021/10/06 08:43:43;;;;;;;9.32;0.90;;;;;;;;;;5031257;28;20103;-67
2021/10/06 08:46:09;;;;;;;2.72;0.90;;;;;;;;;;5031012;28;20094;-67
2021/10/06 08:48:35;;;;;;;3.25;0.80;;;;;;;;;;5035948;28;20079;-67
2021/10/06 08:51:01;;;;;;;2.50;0.80;;;;;;;;;;5033147;28;20037;-67
2021/10/06 08:53:27;;;;;;;3.20;0.93;;;;;;;;;;5015312;28;20065;-67
2021/10/06 08:55:53;;;;;;;3.08;0.90;;;;;;;;;;5030507;28;20037;-67
2021/10/06 08:58:19;;;;;;;4.88;1.10;;;;;;;;;;5037786;28;20029;-67
2021/10/06 09:00:45;;;;;;;1.35;0.70;;;;;;;;;;5031260;28;20036;-67
2021/10/06 09:03:11;;;;;;;3.33;1.58;;;;;;;;;;5031312;28;20098;-67
2021/10/06 09:05:37;;;;;;;8.65;2.15;;;;;;;;;;5029770;28;20818;-67
2021/10/06 09:08:03;;;;;;;2.25;0.73;;;;;;;;;;5031770;28;20044;-67
2021/10/06 09:10:29;;;;;;;6.82;1.23;;;;;;;;;;5031982;28;20029;-67
2021/10/06 09:12:55;;;;;;;4.05;0.95;;;17.60;99.90;;;;;;5032274;28;20029;-66
2021/10/06 09:15:21;;;;;;;4.40;0.80;;;;;;;;;;5033288;28;20075;-67
2021/10/06 09:17:46;;;;;;;2.72;0.80;;;;;;;;;;5033728;28;20040;-66
2021/10/06 09:20:12;;;;;;;0.90;0.63;;;;;;;;;;5033675;28;20043;-66
2021/10/06 09:22:44;;;;;;;3.05;0.80;;;;;;;;;;5030990;28;20052;-67
2021/10/06 09:25:10;;;;;;;3.03;1.05;;;;;;;;;;5031342;28;20113;-67
2021/10/06 09:27:36;;;;;;;2.53;0.98;;;;;;;;;;5030901;28;20382;-66
2021/10/06 09:30:01;;;;;;;5.72;1.73;;;16.40;99.90;;;;;;5031065;28;20835;-66
2021/10/06 09:32:27;;;;;;;5.00;0.90;;;;;;;;;;5034975;28;20033;-68
2021/10/06 09:34:53;;;;;;;7.60;0.95;;;;;;;;;;5031780;28;20040;-68
2021/10/06 09:37:19;;;;;;;3.70;0.98;;;;;;;;;;5031007;28;20099;-68
2021/10/06 09:39:45;;;;;;;3.28;0.80;;;;;;;;;;5028690;28;20033;-68
2021/10/06 09:42:11;;;;;;;3.15;0.90;;;;;;;;;;5032523;28;20029;-68
2021/10/06 09:44:37;;;;;;;6.65;1.77;;;;;;;;;;5016984;28;21093;-68
2021/10/06 09:47:03;;;;;;;4.60;0.90;;;;;;;;;;5031334;28;20750;-68
2021/10/06 09:49:29;;;;;;;4.70;0.80;;;;;;;;;;5034415;28;20036;-68
2021/10/06 09:51:55;;;;;;;6.13;1.15;;;;;;;;;;5032018;28;20120;-68
2021/10/06 09:54:21;;;;;;;1.45;0.80;;;;;;;;;;5025758;28;20041;-68
2021/10/06 09:56:47;;;;;;;3.47;0.85;;;;;;;;;;5029634;28;20036;-68
2021/10/06 09:59:13;;;;;;;6.43;1.17;;;;;;;;;;5032644;28;20036;-68
2021/10/06 10:01:39;;;;;;;4.97;0.77;;;;;;;;;;5029750;28;20036;-68
2021/10/06 10:04:05;;;;;;;3.28;1.08;;;;;;;;;;5036430;28;20041;-68
2021/10/06 10:06:31;;;;;;;3.92;1.05;;;;;;;;;;5031471;28;20039;-68
2021/10/06 10:08:57;;;;;;;6.03;1.13;;;;;;;;;;5031040;28;20067;-68
2021/10/06 10:11:23;;;;;;;4.03;0.75;;;;;;;;;;5027687;28;20532;-68
2021/10/06 10:13:49;;;;;;;1.88;1.00;;;;;;;;;;5029262;28;20056;-68
2021/10/06 10:16:15;;;;;;;3.88;1.88;;;;;;;;;;5031785;28;20124;-68
2021/10/06 10:18:41;;;;;;;11.05;1.60;;;;;;;;;;5032690;28;20025;-67
2021/10/06 10:21:07;;;;;;;2.05;0.85;;;;;;;;;;5034082;28;20118;-67
2021/10/06 10:23:36;;;;;;;2.42;0.80;;;;;;;;;;4997817;28;20051;-68
2021/10/06 10:26:02;;;;;;;1.13;0.65;;;;;;;;;;5033700;28;20045;-67
2021/10/06 10:28:30;;;;;;;5.72;1.00;;;;;;;;;;5032106;28;20036;-67
2021/10/06 10:30:56;;;;;;;5.13;0.88;;;;;;;;;;5032413;28;20075;-66
2021/10/06 10:33:22;;;;;;;3.83;0.73;;;;;;;;;;5030905;28;20117;-68
2021/10/06 10:35:48;;;;;;;6.32;0.88;;;;;;;;;;5034561;28;20040;-68
2021/10/06 10:38:14;;;;;;;6.85;1.02;;;;;;;;;;5027900;28;20639;-68
2021/10/06 10:40:40;;;;;;;7.13;1.05;;;;;;;;;;5034047;28;20108;-68
2021/10/06 10:43:07;;;;;;;6.97;0.88;;;;;;;;;;5030488;28;20029;-68
2021/10/06 10:45:32;;;;;;;6.85;0.93;;;;;;;;;;5029840;28;20098;-68
2021/10/06 10:47:58;;;;;;;4.53;1.00;;;;;;;;;;5033430;28;20485;-69
2021/10/06 10:50:24;;;;;;;4.60;1.02;;;;;;;;;;5027615;28;20702;-68
2021/10/06 10:52:50;;;;;;;1.40;0.50;;;;;;;;;;5028333;28;20029;-67
2021/10/06 10:55:16;;;;;;;1.40;0.60;;;;;;;;;;5027463;28;20036;-68
2021/10/06 10:57:42;;;;;;;4.00;0.88;;;;;;;;;;5026373;28;20060;-67
2021/10/06 11:00:08;;;;;;;3.15;0.82;;;;;;;;;;5027851;28;20848;-69
2021/10/06 11:02:34;;;;;;;3.85;0.82;;;;;;;;;;5031738;28;20978;-67
2021/10/06 11:05:00;;;;;;;4.53;1.08;;;;;;;;;;5034874;28;20900;-68
2021/10/06 11:07:26;;;;;;;2.63;1.10;;;;;;;;;;5029931;28;20025;-68
2021/10/06 11:09:53;;;;;;;2.60;0.73;;;;;;;;;;5026216;28;20086;-67
2021/10/06 11:12:19;;;;;;;2.45;0.75;;;;;;;;;;5031941;28;20056;-67
2021/10/06 11:14:48;;;;;;;3.85;1.10;;;;;;;;;;5019423;28;20033;-66
2021/10/06 11:17:17;;;;;;;1.27;0.80;;;;;;;;;;5031198;28;20081;-67
2021/10/06 11:19:45;;;;;;;2.78;0.80;;;;;;;;;;5014191;28;20080;-67
2021/10/06 11:22:10;;;;;;;12.05;3.72;;;16.70;99.90;;;;;;5030701;28;20820;-67
2021/10/06 11:24:36;;;;;;;12.98;5.53;;;;;;;;;;5038171;28;20762;-67
2021/10/06 11:27:03;;;;;;;5.63;2.30;;;;;;;;;;5035581;28;20472;-67
2021/10/06 11:29:29;;;;;;;2.22;0.95;;;;;;;;;;5036875;28;20060;-67
2021/10/06 11:31:55;;;;;;;7.10;1.00;;;;;;;;;;5035872;28;20876;-67
2021/10/06 11:34:20;;;;;;;2.72;0.75;;;;;;;;;;5033874;28;20124;-67
2021/10/06 11:36:46;;;;;;;3.70;0.73;;;;;;;;;;5035291;28;20028;-67
2021/10/06 11:39:12;;;;;;;2.38;0.70;;;;;;;;;;5033007;28;20032;-67
2021/10/06 11:41:38;;;;;;;4.50;0.70;;;;;;;;;;5021103;28;20041;-67
2021/10/06 11:44:04;;;;;;;2.85;0.80;;;;;;;;;;5015089;28;20140;-67
2021/10/06 11:46:33;;;;;;;1.65;0.70;;;;;;;;;;5028982;28;20080;-67
2021/10/06 11:48:59;;;;;;;7.72;1.08;;;;;;;;;;5031034;28;20043;-67
2021/10/06 11:51:25;;;;;;;1.90;0.60;;;;;;;;;;5032689;28;20753;-67
2021/10/06 11:53:51;;;;;;;3.35;0.80;;;;;;;;;;5029684;28;20025;-67
2021/10/06 11:56:17;;;;;;;2.78;0.63;;;;;;;;;;5031238;28;20056;-67
2021/10/06 11:58:43;;;;;;;2.83;1.35;;;;;;;;;;5027527;28;20022;-67
2021/10/06 12:01:09;;;;;;;4.03;0.77;;;;;;;;;;5029397;28;20030;-67
2021/10/06 12:03:35;;;;;;;6.10;2.35;;;;;;;;;;5028541;28;20038;-67
2021/10/06 12:06:01;;;;;;;3.80;1.05;;;;;;;;;;5030592;28;20040;-67
2021/10/06 12:08:27;;;;;;;3.42;1.00;;;;;;;;;;5013232;28;20727;-67
2021/10/06 12:10:53;;;;;;;2.08;0.95;;;;;;;;;;5033874;28;20037;-67
2021/10/06 12:13:19;;;;;;;3.83;1.00;;;;;;;;;;5016935;28;20048;-67
2021/10/06 12:15:45;;;;;;;3.60;0.77;;;;;;;;;;5035099;28;20079;-68
2021/10/06 12:18:11;;;;;;;6.65;0.80;;;;;;;;;;5035698;28;20064;-67
2021/10/06 12:20:37;;;;;;;3.70;1.23;;;;;;;;;;5012788;28;20037;-67
2021/10/06 12:23:03;;;;;;;7.57;3.10;;;;;;;;;;5028855;28;20116;-67
2021/10/06 12:25:29;;;;;;;8.15;2.47;;;;;;;;;;5035296;28;20684;-67
2021/10/06 12:27:55;;;;;;;5.30;1.75;;;;;;;;;;5028916;28;20463;-67
2021/10/06 12:30:21;;;;;;;2.58;0.90;;;;;;;;;;5033675;28;20427;-67
2021/10/06 12:32:47;;;;;;;4.20;0.68;;;;;;;;;;5032776;28;20037;-67
2021/10/06 12:35:13;;;;;;;3.45;0.90;;;;;;;;;;5014232;28;20037;-67
2021/10/06 12:37:39;;;;;;;9.00;1.08;;;;;;;;;;5033231;28;20044;-67
2021/10/06 12:40:05;;;;;;;1.33;0.65;;;;;;;;;;5028417;28;20030;-67
2021/10/06 12:42:31;;;;;;;4.47;0.90;;;;;;;;;;5032485;28;20076;-67
2021/10/06 12:44:57;;;;;;;4.10;0.77;;;;;;;;;;5031589;28;20062;-67
2021/10/06 12:47:23;;;;;;;3.80;0.75;;;;;;;;;;5027683;28;20029;-67
2021/10/06 12:49:50;;;;;;;2.90;0.90;;;;;;;;;;5006787;28;20523;-67
2021/10/06 12:52:16;;;;;;;4.88;0.93;;;;;;;;;;5031207;28;20615;-67
2021/10/06 12:54:42;;;;;;;1.90;0.73;;;;;;;;;;5025439;28;20024;-67
2021/10/06 12:57:08;;;;;;;2.40;1.23;;;;;;;;;;5033234;28;20025;-67
2021/10/06 12:59:34;;;;;;;0.95;0.60;;;;;;;;;;5012391;28;20520;-67
2021/10/06 13:02:00;;;;;;;3.35;0.80;;;;;;;;;;5026050;28;20086;-67
2021/10/06 13:04:26;;;;;;;4.47;0.57;;;;;;;;;;5029112;28;20029;-67
2021/10/06 13:06:52;;;;;;;3.80;0.90;;;;;;;;;;5028841;28;20141;-67
2021/10/06 13:09:18;;;;;;;1.80;0.88;;;;;;;;;;5026514;28;20691;-67
2021/10/06 13:11:44;;;;;;;10.18;1.02;;;;;;;;;;5030990;28;20448;-67
2021/10/06 13:14:10;;;;;;;1.38;0.60;;;;;;;;;;5033885;28;20033;-67
2021/10/06 13:19:19;;;;;;;2.08;0.60;;;;;;;;;;5811518;23;20057;-66
2021/10/06 13:21:44;;;;;;;3.17;0.75;;;;;;;;;;5000229;28;20543;-65
2021/10/06 13:24:11;;;;;;;2.40;0.80;;;;;;;;;;4992583;28;20033;-65
2021/10/06 13:26:37;;;;;;;7.25;1.52;;;;;;;;;;5000394;28;20492;-65
2021/10/06 13:29:04;;;;;;;4.75;1.38;;;;;;;;;;5006203;28;20163;-65
2021/10/06 13:31:30;;;;;;;4.90;1.08;;;;;;;;;;5000088;28;20059;-65
2021/10/06 13:33:56;;;;;;;2.45;0.90;;;;;;;;;;4997398;28;20691;-65
2021/10/06 13:36:22;;;;;;;2.22;1.00;;;;;;;;;;4999681;28;20057;-65
2021/10/06 13:38:48;;;;;;;5.82;1.08;;;;;;;;;;4994923;28;20618;-65
2021/10/06 13:41:14;;;;;;;2.78;0.70;;;;;;;;;;4995558;28;20576;-65
2021/10/06 13:43:40;;;;;;;7.20;0.80;;;;;;;;;;4990683;28;20042;-65
2021/10/06 13:46:06;;;;;;;2.80;0.73;;;;;;;;;;4998723;28;20512;-65
2021/10/06 13:48:38;;;;;;;3.50;0.90;;;;;;;;;;4998061;28;20120;-65
2021/10/06 13:51:04;;;;;;;1.83;0.60;;;;;;;;;;4998697;28;20049;-65
2021/10/06 13:53:30;;;;;;;2.85;0.75;;;;;;;;;;4997762;28;20133;-65
2021/10/06 13:55:56;;;;;;;6.32;0.73;;;;;;;;;;5013278;28;20532;-65
2021/10/06 13:58:22;;;;;;;4.18;0.75;;;;;;;;;;4998362;28;20026;-65
2021/10/06 14:00:48;;;;;;;3.72;0.88;;;;;;;;;;4997685;28;20120;-65
2021/10/06 14:03:14;;;;;;;1.80;0.60;;;;;;;;;;4996779;28;20041;-65
2021/10/06 14:05:40;;;;;;;2.88;0.90;;;;;;;;;;4998694;28;20731;-65
2021/10/06 14:08:06;;;;;;;3.78;0.88;;;;;;;;;;4998554;28;20131;-65
2021/10/06 14:10:32;;;;;;;2.28;0.70;;;;;;;;;;4999863;28;20030;-65
2021/10/06 14:13:00;;;;;;;5.18;0.82;;;;;;;;;;4997928;28;20109;-65
2021/10/06 14:15:26;;;;;;;1.50;0.80;;;;;;;;;;4999475;28;20843;-65
2021/10/06 14:17:56;;;;;;;4.03;0.75;;;;;;;;;;4999148;28;20520;-65
2021/10/06 14:20:22;;;;;;;2.85;0.75;;;;;;;;;;5012597;28;20089;-64
2021/10/06 14:22:48;;;;;;;4.43;0.90;;;;;;;;;;4998485;28;20048;-65
2021/10/06 14:25:14;;;;;;;3.15;0.73;;;;;;;;;;4999184;28;20038;-65
2021/10/06 14:27:40;;;;;;;4.88;1.65;;;;;;;;;;4995855;28;20493;-65